Time;durP1;ratioP1;P1;durP2;ratioP2;P2;SDS_P1;SDS_P2;PMS_P1;PMS_P2;Temp;Humidity;BMP_temperature;BMP_pressure;BME280_temperature;BME280_humidity;BME280_pressure;Samples;Min_cycle;Max_cycle;Signal;HPM_P1;HPM_P2
2021/07/15 00:00:02;;;;;;;2.25;2.15;;;27.80;56.90;;;;;;5051391;28;20072;-63
2021/07/15 00:02:29;;;;;;;1.70;1.60;;;27.80;56.90;;;;;;5070282;28;20488;-64
2021/07/15 00:04:56;;;;;;;2.22;2.13;;;27.80;56.90;;;;;;5069451;28;20040;-63
2021/07/15 00:07:23;;;;;;;1.98;1.88;;;27.80;56.90;;;;;;5069195;28;20055;-64
2021/07/15 00:09:50;;;;;;;1.80;1.70;;;27.80;56.90;;;;;;5069625;28;20536;-64
2021/07/15 00:12:18;;;;;;;1.80;1.70;;;27.80;56.90;;;;;;5069197;28;20080;-64
2021/07/15 00:14:45;;;;;;;1.80;1.70;;;27.80;56.80;;;;;;5068852;28;20413;-64
2021/07/15 00:17:12;;;;;;;1.70;1.60;;;27.80;56.80;;;;;;5069387;28;20094;-63
2021/07/15 00:19:39;;;;;;;1.80;1.70;;;27.70;56.80;;;;;;5069244;28;20699;-63
2021/07/15 00:22:07;;;;;;;1.98;1.88;;;27.80;56.80;;;;;;5051832;28;20563;-64
2021/07/15 00:24:35;;;;;;;1.90;1.80;;;27.80;56.90;;;;;;5068839;28;20744;-63
2021/07/15 00:27:02;;;;;;;2.15;1.90;;;27.80;56.80;;;;;;5051597;28;20131;-64
2021/07/15 00:29:29;;;;;;;1.80;1.70;;;27.80;56.80;;;;;;5068835;28;20136;-64
2021/07/15 00:31:56;;;;;;;1.83;1.73;;;27.80;56.80;;;;;;5069221;28;20127;-64
2021/07/15 00:34:24;;;;;;;1.70;1.60;;;27.80;56.80;;;;;;5068632;28;20497;-63
2021/07/15 00:36:52;;;;;;;2.00;1.73;;;27.80;56.80;;;;;;5069138;28;20048;-64
2021/07/15 00:39:19;;;;;;;1.90;1.80;;;27.80;56.80;;;;;;5051207;28;20076;-64
2021/07/15 00:41:46;;;;;;;2.20;2.10;;;27.80;56.80;;;;;;5068988;28;20067;-64
2021/07/15 00:44:14;;;;;;;2.83;1.70;;;27.80;56.80;;;;;;5068936;28;20127;-63
2021/07/15 00:46:41;;;;;;;2.05;1.95;;;27.70;56.70;;;;;;5068543;28;20084;-64
2021/07/15 00:49:09;;;;;;;1.90;1.80;;;27.70;56.70;;;;;;5068530;28;20040;-63
2021/07/15 00:51:36;;;;;;;1.70;1.60;;;27.70;56.70;;;;;;5068736;28;20355;-63
2021/07/15 00:54:03;;;;;;;2.00;1.90;;;27.70;56.70;;;;;;5068168;28;20044;-64
2021/07/15 00:56:30;;;;;;;1.90;1.80;;;27.70;56.70;;;;;;5068290;28;20056;-64
2021/07/15 00:58:57;;;;;;;1.70;1.60;;;27.70;56.80;;;;;;5068296;28;20052;-64
2021/07/15 01:01:25;;;;;;;1.58;1.50;;;27.70;56.70;;;;;;5068400;28;20102;-63
2021/07/15 01:03:53;;;;;;;1.83;1.73;;;27.70;56.70;;;;;;5067993;28;20131;-64
2021/07/15 01:06:20;;;;;;;1.70;1.60;;;27.70;56.70;;;;;;5068402;28;20166;-64
2021/07/15 01:08:48;;;;;;;1.70;1.60;;;27.70;56.80;;;;;;5068748;28;20068;-64
2021/07/15 01:11:38;;;;;;;1.23;1.23;;;27.70;56.80;;;;;;5067894;28;20132;-64
2021/07/15 01:14:15;;;;;;;1.38;1.38;;;27.70;56.80;;;;;;5068168;28;20140;-63
2021/07/15 01:16:52;;;;;;;1.60;1.50;;;27.70;56.80;;;;;;5068810;28;20131;-64
2021/07/15 01:19:59;;;;;;;2.03;1.83;;;27.70;56.70;;;;;;5049935;28;20087;-64
2021/07/15 01:22:43;;;;;;;1.95;1.85;;;27.70;56.80;;;;;;5067757;28;20051;-63
2021/07/15 01:25:50;;;;;;;1.70;1.60;;;27.60;56.70;;;;;;5067646;28;20053;-64
2021/07/15 01:28:30;;;;;;;1.60;1.50;;;27.60;56.70;;;;;;5053138;28;20048;-64
2021/07/15 01:31:00;;;;;;;;;;;27.60;56.70;;;;;;5068678;28;20083;-64
2021/07/15 01:33:30;;;;;;;1.83;1.60;;;27.60;56.70;;;;;;5067579;28;19920;-64
2021/07/15 01:36:08;;;;;;;1.65;1.55;;;27.60;56.70;;;;;;5050059;28;20086;-63
2021/07/15 01:38:40;;;;;;;1.73;1.63;;;27.60;56.70;;;;;;5070211;28;20556;-64
2021/07/15 01:41:12;;;;;;;1.95;1.65;;;27.60;56.70;;;;;;5066402;28;20537;-64
2021/07/15 01:44:01;;;;;;;1.60;1.50;;;27.60;56.70;;;;;;5069155;28;20044;-64
2021/07/15 01:46:29;;;;;;;1.83;1.73;;;27.60;56.70;;;;;;5067815;28;20049;-64
2021/07/15 01:48:56;;;;;;;1.48;1.40;;;27.60;56.60;;;;;;5068061;28;20056;-64
2021/07/15 01:51:24;;;;;;;2.38;1.70;;;27.60;56.60;;;;;;5066950;28;20106;-64
2021/07/15 01:53:53;;;;;;;1.70;1.60;;;27.70;56.70;;;;;;5050246;28;20104;-64
2021/07/15 01:56:21;;;;;;;1.77;1.67;;;27.60;56.60;;;;;;5067478;28;20522;-63
2021/07/15 01:58:51;;;;;;;1.70;1.60;;;27.60;56.50;;;;;;5068068;28;20045;-64
2021/07/15 02:01:19;;;;;;;2.58;1.75;;;27.60;56.50;;;;;;5049965;28;20708;-63
2021/07/15 02:03:50;;;;;;;1.63;1.52;;;27.60;56.60;;;;;;5068163;28;20053;-63
2021/07/15 02:06:19;;;;;;;1.52;1.42;;;27.60;56.60;;;;;;5067692;28;20513;-64
2021/07/15 02:08:48;;;;;;;1.40;1.30;;;27.60;56.50;;;;;;5067575;28;20040;-64
2021/07/15 02:11:16;;;;;;;1.58;1.48;;;27.60;56.50;;;;;;5067641;28;20637;-64
2021/07/15 02:13:45;;;;;;;1.60;1.50;;;27.60;56.50;;;;;;5067590;28;20049;-64
2021/07/15 02:16:14;;;;;;;1.15;1.15;;;27.60;56.50;;;;;;5066987;28;20055;-64
2021/07/15 02:18:43;;;;;;;1.52;1.42;;;27.60;56.50;;;;;;5068001;28;20067;-64
2021/07/15 02:21:11;;;;;;;1.43;1.33;;;27.60;56.50;;;;;;5066894;28;20410;-64
2021/07/15 02:23:40;;;;;;;1.55;1.38;;;27.60;56.50;;;;;;5067736;28;20900;-64
2021/07/15 02:26:08;;;;;;;1.50;1.40;;;27.60;56.50;;;;;;5049303;28;20127;-64
2021/07/15 02:28:36;;;;;;;1.45;1.35;;;27.60;56.50;;;;;;5066908;28;20517;-64
2021/07/15 02:31:14;;;;;;;1.45;1.38;;;27.60;56.50;;;;;;5067254;28;20727;-64
2021/07/15 02:33:52;;;;;;;1.00;1.00;;;27.60;56.50;;;;;;5049822;28;20590;-64
2021/07/15 02:36:22;;;;;;;1.33;1.33;;;27.60;56.50;;;;;;5066643;28;20083;-64
2021/07/15 02:38:52;;;;;;;1.42;1.30;;;27.60;56.50;;;;;;5049552;28;20048;-64
2021/07/15 02:41:19;;;;;;;;;;;27.60;56.50;;;;;;5067625;28;20076;-63
2021/07/15 02:43:47;;;;;;;1.80;1.70;;;27.50;56.50;;;;;;5066680;28;19967;-64
2021/07/15 02:46:15;;;;;;;2.00;1.90;;;27.60;56.50;;;;;;5066870;28;20087;-64
2021/07/15 02:48:43;;;;;;;1.70;1.60;;;27.50;56.40;;;;;;5066903;28;20049;-64
2021/07/15 02:51:10;;;;;;;1.20;1.20;;;27.60;56.50;;;;;;5066891;28;20147;-63
2021/07/15 02:53:39;;;;;;;1.30;1.25;;;27.60;56.50;;;;;;5067037;28;20052;-64
2021/07/15 02:56:36;;;;;;;1.23;1.23;;;27.60;56.50;;;;;;5067118;28;20048;-64
2021/07/15 02:59:22;;;;;;;1.50;1.35;;;27.60;56.40;;;;;;5067017;28;20143;-64
2021/07/15 03:02:14;;;;;;;1.08;1.08;;;27.60;56.40;;;;;;5067100;28;20080;-64
2021/07/15 03:04:48;;;;;;;1.73;1.63;;;27.60;56.40;;;;;;5070480;28;20072;-64
2021/07/15 03:07:18;;;;;;;1.58;1.48;;;27.60;56.40;;;;;;5070694;28;20072;-64
2021/07/15 03:09:49;;;;;;;1.55;1.30;;;27.60;56.30;;;;;;5070522;28;20505;-64
2021/07/15 03:12:22;;;;;;;1.88;1.73;;;27.60;56.30;;;;;;5070233;28;20569;-63
2021/07/15 03:14:53;;;;;;;1.30;1.20;;;27.60;56.30;;;;;;5070313;28;20084;-64
2021/07/15 03:17:26;;;;;;;1.10;1.10;;;27.60;56.20;;;;;;5070675;28;20040;-64
2021/07/15 03:19:57;;;;;;;1.63;1.52;;;27.60;56.20;;;;;;5070308;28;20084;-64
2021/07/15 03:22:26;;;;;;;1.48;1.30;;;27.60;56.20;;;;;;5070565;28;20099;-64
2021/07/15 03:25:00;;;;;;;1.83;1.50;;;27.60;56.20;;;;;;5070117;28;20736;-64
2021/07/15 03:27:31;;;;;;;1.30;1.30;;;27.60;56.10;;;;;;5069902;28;20044;-64
2021/07/15 03:30:00;;;;;;;1.35;1.25;;;27.60;56.10;;;;;;5070044;28;20131;-64
2021/07/15 03:32:28;;;;;;;1.10;1.10;;;27.60;56.10;;;;;;5070091;28;20076;-64
2021/07/15 03:34:55;;;;;;;3.17;1.50;;;27.60;56.10;;;;;;5070288;28;20401;-64
2021/07/15 03:37:23;;;;;;;1.70;1.60;;;27.60;56.20;;;;;;5069474;28;20490;-64
2021/07/15 03:39:52;;;;;;;1.17;1.17;;;27.60;56.00;;;;;;5070051;28;20123;-64
2021/07/15 03:42:21;;;;;;;1.65;1.55;;;27.60;55.90;;;;;;5069867;28;20151;-64
2021/07/15 03:44:50;;;;;;;1.33;1.23;;;27.60;55.90;;;;;;5069977;28;20609;-64
2021/07/15 03:47:18;;;;;;;1.50;1.40;;;27.60;55.80;;;;;;5069903;28;20052;-64
2021/07/15 03:49:47;;;;;;;1.70;1.60;;;27.60;55.80;;;;;;5069797;28;20441;-63
2021/07/15 03:52:17;;;;;;;1.55;1.45;;;27.60;55.70;;;;;;5069794;28;20128;-64
2021/07/15 03:54:46;;;;;;;;;;;27.60;55.70;;;;;;5069806;28;20048;-63
2021/07/15 03:57:16;;;;;;;1.20;1.20;;;27.60;55.60;;;;;;5069212;28;19920;-64
2021/07/15 03:59:50;;;;;;;1.65;1.30;;;27.60;55.50;;;;;;5069826;28;20076;-65
2021/07/15 04:02:25;;;;;;;1.55;1.23;;;27.60;55.50;;;;;;5052776;28;20076;-64
2021/07/15 04:04:56;;;;;;;1.08;1.05;;;27.60;55.40;;;;;;5070052;28;20083;-64
2021/07/15 04:07:30;;;;;;;1.25;1.23;;;27.60;55.30;;;;;;5069202;28;20422;-64
2021/07/15 04:09:58;;;;;;;1.10;1.10;;;27.60;55.30;;;;;;5069517;28;20091;-65
2021/07/15 04:12:27;;;;;;;1.95;1.05;;;27.60;55.20;;;;;;5069252;28;20056;-64
2021/07/15 04:15:09;;;;;;;1.08;1.00;;;27.70;55.30;;;;;;5069187;28;20093;-64
2021/07/15 04:17:59;;;;;;;2.05;1.40;;;27.70;55.20;;;;;;5068837;28;20045;-63
2021/07/15 04:20:28;;;;;;;1.50;1.40;;;27.70;55.20;;;;;;5068242;28;20456;-63
2021/07/15 04:22:59;;;;;;;1.60;1.30;;;27.70;55.10;;;;;;5051209;28;20513;-66
2021/07/15 04:25:28;;;;;;;1.70;1.60;;;27.70;55.10;;;;;;5069187;28;20056;-64
2021/07/15 04:28:00;;;;;;;1.10;1.10;;;27.80;55.10;;;;;;5068934;28;20504;-64
2021/07/15 04:30:28;;;;;;;1.40;1.30;;;27.80;55.00;;;;;;5068654;28;20049;-64
2021/07/15 04:33:08;;;;;;;1.48;1.38;;;27.80;55.00;;;;;;5068810;28;20049;-64
2021/07/15 04:35:37;;;;;;;1.27;1.17;;;27.80;54.90;;;;;;5050666;28;20041;-64
2021/07/15 04:38:05;;;;;;;1.20;1.20;;;27.80;55.50;;;;;;5068619;28;20130;-64
2021/07/15 04:40:34;;;;;;;1.42;1.27;;;27.80;54.90;;;;;;5068162;28;20101;-64
2021/07/15 04:43:10;;;;;;;1.25;1.17;;;27.80;54.90;;;;;;5068951;28;20123;-64
2021/07/15 04:45:40;;;;;;;1.40;1.30;;;27.90;55.50;;;;;;5073787;28;20101;-64
2021/07/15 04:48:08;;;;;;;1.95;1.45;;;27.90;54.90;;;;;;5086919;28;20086;-64
2021/07/15 04:50:36;;;;;;;1.13;1.02;;;27.90;54.90;;;;;;5078234;28;20131;-64
2021/07/15 04:53:07;;;;;;;1.35;1.30;;;27.90;54.90;;;;;;5082642;28;20075;-64
2021/07/15 04:55:35;;;;;;;1.33;1.33;;;27.90;54.80;;;;;;5087328;28;20131;-64
2021/07/15 04:58:05;;;;;;;1.35;1.25;;;27.90;54.80;;;;;;5068736;28;20083;-63
2021/07/15 05:00:33;;;;;;;1.10;1.10;;;27.90;54.80;;;;;;5067842;28;21013;-65
2021/07/15 05:03:09;;;;;;;1.20;1.10;;;27.90;54.70;;;;;;5082671;28;20075;-64
2021/07/15 05:05:37;;;;;;;1.60;1.00;;;27.90;54.50;;;;;;5092963;28;20071;-65
2021/07/15 05:08:04;;;;;;;0.98;0.98;;;27.90;54.20;;;;;;5103868;28;20401;-65
2021/07/15 05:10:31;;;;;;;1.13;1.02;;;27.90;53.90;;;;;;5085330;28;20136;-64
2021/07/15 05:13:01;;;;;;;0.90;0.90;;;27.80;53.80;;;;;;5086362;28;20086;-64
2021/07/15 05:15:29;;;;;;;1.35;0.98;;;27.70;53.90;;;;;;5088307;28;20036;-64
2021/07/15 05:17:56;;;;;;;1.38;1.25;;;27.50;53.90;;;;;;5093044;28;20532;-65
2021/07/15 05:20:24;;;;;;;1.17;1.17;;;27.30;54.10;;;;;;5083891;28;20044;-64
2021/07/15 05:22:51;;;;;;;1.25;1.13;;;27.00;54.30;;;;;;5084441;28;20119;-64
2021/07/15 05:25:18;;;;;;;1.23;1.08;;;26.70;54.40;;;;;;5086318;28;20046;-68
2021/07/15 05:27:45;;;;;;;1.30;1.20;;;26.30;54.50;;;;;;5064390;28;20083;-67
2021/07/15 05:30:13;;;;;;;1.98;1.20;;;26.00;54.60;;;;;;5080512;28;20127;-68
2021/07/15 05:32:41;;;;;;;2.92;1.10;;;25.80;54.40;;;;;;5083369;28;20127;-67
2021/07/15 05:35:08;;;;;;;1.25;0.98;;;25.50;53.20;;;;;;5079540;28;20089;-68
2021/07/15 05:37:35;;;;;;;2.22;1.10;;;25.30;53.40;;;;;;5080616;28;20486;-68
2021/07/15 05:40:04;;;;;;;3.42;1.05;;;25.10;53.60;;;;;;5072765;28;20044;-70
2021/07/15 05:42:31;;;;;;;2.25;1.00;;;24.90;52.60;;;;;;5081381;28;20032;-66
2021/07/15 05:44:59;;;;;;;2.00;1.40;;;24.70;52.30;;;;;;5083568;28;20066;-68
2021/07/15 05:47:27;;;;;;;3.80;1.08;;;24.50;52.20;;;;;;5082651;28;20130;-68
2021/07/15 05:49:54;;;;;;;1.40;1.00;;;24.30;52.60;;;;;;5076345;28;20166;-65
2021/07/15 05:52:21;;;;;;;5.90;1.40;;;24.10;52.50;;;;;;5079304;28;20581;-67
2021/07/15 05:54:50;;;;;;;4.03;1.20;;;24.00;52.90;;;;;;5079987;28;20570;-64
2021/07/15 05:57:19;;;;;;;4.00;1.33;;;23.80;52.90;;;;;;5077176;28;20063;-64
2021/07/15 05:59:46;;;;;;;4.53;1.23;;;23.70;52.60;;;;;;5076520;28;20075;-64
2021/07/15 06:02:15;;;;;;;2.75;0.98;;;23.50;53.00;;;;;;5079046;28;20127;-61
2021/07/15 06:04:43;;;;;;;3.40;1.10;;;23.40;53.20;;;;;;5079819;28;20036;-68
2021/07/15 06:07:10;;;;;;;1.35;1.15;;;23.40;53.50;;;;;;5084812;28;20062;-69
2021/07/15 06:09:38;;;;;;;3.15;0.98;;;23.30;53.40;;;;;;5082840;28;20544;-65
2021/07/15 06:12:05;;;;;;;2.55;1.05;;;23.30;53.50;;;;;;5078278;28;20152;-65
2021/07/15 06:14:32;;;;;;;1.70;1.08;;;23.20;52.70;;;;;;5082251;28;20040;-66
2021/07/15 06:17:01;;;;;;;2.70;1.05;;;23.20;52.80;;;;;;5061950;28;20696;-65
2021/07/15 06:19:29;;;;;;;2.92;0.90;;;23.20;52.90;;;;;;5078823;28;20468;-64
2021/07/15 06:22:10;;;;;;;1.00;0.98;;;23.20;53.00;;;;;;5061401;28;20111;-62
2021/07/15 06:24:37;;;;;;;3.90;1.17;;;23.20;52.10;;;;;;5075764;28;20138;-64
2021/07/15 06:27:04;;;;;;;3.42;1.65;;;23.20;52.20;;;;;;5077908;28;20127;-63
2021/07/15 06:29:31;;;;;;;3.15;1.00;;;23.20;52.40;;;;;;5082232;28;20036;-63
2021/07/15 06:31:58;;;;;;;1.90;0.70;;;23.20;52.20;;;;;;5078418;28;20405;-64
2021/07/15 06:34:27;;;;;;;2.25;0.90;;;23.20;51.60;;;;;;5065208;28;20055;-64
2021/07/15 06:36:54;;;;;;;3.80;1.10;;;23.20;51.60;;;;;;5062286;28;20191;-65
2021/07/15 06:39:21;;;;;;;3.25;0.73;;;23.20;51.90;;;;;;5089384;28;20538;-63
2021/07/15 06:41:50;;;;;;;1.35;0.98;;;23.20;52.10;;;;;;5088845;28;20090;-63
2021/07/15 06:44:18;;;;;;;3.10;0.90;;;23.20;52.20;;;;;;5079330;28;20063;-63
2021/07/15 06:46:46;;;;;;;3.15;0.80;;;23.20;52.00;;;;;;5082459;28;20556;-64
2021/07/15 06:49:13;;;;;;;2.80;1.08;;;23.30;51.20;;;;;;5084343;28;20045;-62
2021/07/15 06:51:40;;;;;;;1.00;0.60;;;23.40;50.20;;;;;;5081031;28;20037;-64
2021/07/15 06:54:07;;;;;;;2.42;0.80;;;23.40;49.70;;;;;;5083718;28;20093;-66
2021/07/15 06:56:36;;;;;;;2.30;0.95;;;23.40;50.10;;;;;;5067336;28;21103;-67
2021/07/15 06:59:05;;;;;;;2.40;0.60;;;23.40;50.30;;;;;;5079979;28;20127;-67
2021/07/15 07:01:32;;;;;;;3.53;0.70;;;23.40;50.60;;;;;;5082169;28;20076;-66
2021/07/15 07:04:00;;;;;;;1.52;0.80;;;23.40;49.80;;;;;;5083329;28;20048;-70
2021/07/15 07:06:27;;;;;;;3.33;1.02;;;23.40;49.30;;;;;;5084730;28;20036;-64
2021/07/15 07:08:54;;;;;;;1.65;0.60;;;23.40;49.20;;;;;;5076957;28;20140;-66
2021/07/15 07:11:21;;;;;;;1.40;0.60;;;23.40;48.80;;;;;;5083805;28;20131;-71
2021/07/15 07:13:48;;;;;;;3.60;0.80;;;23.40;48.90;;;;;;5051568;28;20072;-64
2021/07/15 07:16:15;;;;;;;1.73;0.70;;;23.30;48.70;;;;;;5083972;28;20122;-67
2021/07/15 07:18:43;;;;;;;1.88;0.77;;;23.30;49.10;;;;;;5088380;28;20397;-68
2021/07/15 07:21:10;;;;;;;2.65;1.05;;;23.30;49.60;;;;;;5083581;28;20048;-67
2021/07/15 07:23:38;;;;;;;0.90;0.90;;;23.40;50.10;;;;;;5085617;28;20596;-65
2021/07/15 07:26:06;;;;;;;2.35;1.00;;;23.40;50.00;;;;;;5066940;28;20052;-65
2021/07/15 07:28:34;;;;;;;1.98;0.70;;;23.40;50.00;;;;;;5067034;28;20042;-66
2021/07/15 07:31:02;;;;;;;1.45;0.63;;;23.40;49.80;;;;;;5083167;28;20063;-63
2021/07/15 07:33:29;;;;;;;0.75;0.50;;;23.40;50.10;;;;;;5083078;28;20459;-69
2021/07/15 07:40:10;;;;;;;0.82;0.63;;;23.40;50.70;;;;;;5080623;28;20043;-68
2021/07/15 07:43:01;;;;;;;0.50;0.50;;;23.50;50.90;;;;;;5045235;28;20575;-66
2021/07/15 07:45:33;;;;;;;1.58;0.70;;;23.50;50.80;;;;;;5078401;28;20043;-65
2021/07/15 07:48:00;;;;;;;0.93;0.55;;;23.50;51.20;;;;;;5060382;28;20472;-67
2021/07/15 07:50:31;;;;;;;3.38;0.60;;;23.60;51.50;;;;;;5063940;28;20104;-69
2021/07/15 07:52:58;;;;;;;1.27;0.77;;;23.60;51.80;;;;;;5077898;28;20113;-68
2021/07/15 07:55:26;;;;;;;1.20;0.80;;;23.60;52.00;;;;;;5079555;28;20658;-64
2021/07/15 07:57:53;;;;;;;1.55;0.57;;;23.60;52.10;;;;;;5075941;28;20044;-63
2021/07/15 08:00:20;;;;;;;0.50;0.50;;;23.70;52.30;;;;;;5078047;28;20100;-69
2021/07/15 08:02:53;;;;;;;0.88;0.50;;;23.60;52.50;;;;;;5071208;28;20052;-69
2021/07/15 08:05:23;;;;;;;0.88;0.80;;;23.60;52.50;;;;;;5076579;28;20083;-66
2021/07/15 08:07:51;;;;;;;2.35;1.05;;;23.60;52.60;;;;;;5080670;28;20070;-65
2021/07/15 08:10:19;;;;;;;0.70;0.70;;;23.60;52.70;;;;;;5077444;28;20156;-66
2021/07/15 08:12:47;;;;;;;0.50;0.50;;;23.60;52.80;;;;;;5084436;28;20552;-64
2021/07/15 08:15:14;;;;;;;0.38;0.38;;;23.60;52.90;;;;;;5082197;28;20044;-62
2021/07/15 08:17:41;;;;;;;1.38;0.68;;;23.60;52.90;;;;;;5081545;28;20048;-63
2021/07/15 08:20:10;;;;;;;0.60;0.60;;;23.60;52.80;;;;;;5068630;28;20075;-65
2021/07/15 08:22:39;;;;;;;1.70;0.60;;;23.60;52.80;;;;;;5079564;28;20132;-63
2021/07/15 08:25:13;;;;;;;1.45;0.73;;;23.60;52.70;;;;;;5061761;28;20044;-63
2021/07/15 08:27:40;;;;;;;1.02;0.60;;;23.60;52.80;;;;;;5062370;28;20067;-63
2021/07/15 08:30:09;;;;;;;1.55;0.50;;;23.60;52.80;;;;;;5082304;28;20066;-63
2021/07/15 08:32:37;;;;;;;0.82;0.40;;;23.60;52.80;;;;;;5076417;28;20107;-63
2021/07/15 08:35:23;;;;;;;0.77;0.50;;;23.60;52.80;;;;;;5081202;28;20051;-63
2021/07/15 08:37:50;;;;;;;1.65;0.70;;;23.60;53.00;;;;;;5086121;28;20077;-65
2021/07/15 08:40:17;;;;;;;1.08;0.70;;;23.60;53.20;;;;;;5077140;28;20040;-65
2021/07/15 08:42:45;;;;;;;0.73;0.60;;;23.70;53.30;;;;;;5077752;28;20052;-65
2021/07/15 08:45:15;;;;;;;1.80;0.40;;;23.70;53.40;;;;;;5065706;28;20491;-65
2021/07/15 08:47:45;;;;;;;;;;;23.70;53.40;;;;;;5058430;28;20505;-63
2021/07/15 08:50:14;;;;;;;1.27;0.65;;;23.70;53.50;;;;;;5080642;28;20609;-62
2021/07/15 08:52:42;;;;;;;1.20;0.55;;;23.60;53.30;;;;;;5080865;28;20044;-64
2021/07/15 08:55:22;;;;;;;1.48;0.70;;;23.70;53.40;;;;;;5082168;28;20043;-63
2021/07/15 08:57:50;;;;;;;0.40;0.40;;;23.70;53.30;;;;;;5079794;28;20447;-65
2021/07/15 09:00:17;;;;;;;1.60;0.60;;;23.70;53.30;;;;;;5080665;28;20078;-64
2021/07/15 09:02:45;;;;;;;0.43;0.40;;;23.70;53.40;;;;;;5079659;28;20908;-64
2021/07/15 09:05:14;;;;;;;0.47;0.45;;;23.80;53.50;;;;;;5078943;28;20061;-63
2021/07/15 09:07:44;;;;;;;1.58;0.85;;;23.80;53.60;;;;;;5083984;28;20074;-63
2021/07/15 09:10:12;;;;;;;;;;;23.80;53.50;;;;;;5078936;28;20036;-65
2021/07/15 09:12:39;;;;;;;0.47;0.47;;;23.80;53.40;;;;;;5081288;28;19920;-63
2021/07/15 09:15:14;;;;;;;0.47;0.38;;;23.80;53.30;;;;;;5063791;28;20051;-64
2021/07/15 09:17:42;;;;;;;0.50;0.38;;;23.80;53.40;;;;;;5084639;28;20760;-62
2021/07/15 09:20:22;;;;;;;0.70;0.55;;;23.90;53.20;;;;;;5079835;28;20143;-62
2021/07/15 09:23:00;;;;;;;2.42;0.63;;;23.80;53.20;;;;;;5079450;28;20040;-63
2021/07/15 09:25:48;;;;;;;0.60;0.60;;;23.80;53.10;;;;;;5075873;28;20155;-63
2021/07/15 09:28:27;;;;;;;0.30;0.30;;;23.80;53.00;;;;;;5075494;28;20047;-64
2021/07/15 09:30:55;;;;;;;1.65;0.30;;;23.80;52.90;;;;;;5084678;28;20044;-64
2021/07/15 09:33:26;;;;;;;0.40;0.40;;;23.80;53.10;;;;;;5064454;28;20040;-63
2021/07/15 09:35:53;;;;;;;0.43;0.43;;;23.80;53.00;;;;;;5064507;28;20060;-63
2021/07/15 09:38:23;;;;;;;0.47;0.47;;;23.80;53.00;;;;;;5081195;28;20047;-65
2021/07/15 09:41:04;;;;;;;0.38;0.38;;;23.80;52.90;;;;;;5082699;28;20477;-63
2021/07/15 09:43:37;;;;;;;0.40;0.40;;;23.80;53.00;;;;;;5078440;28;20548;-63
2021/07/15 09:46:18;;;;;;;0.52;0.52;;;23.80;53.00;;;;;;5074871;28;20040;-65
2021/07/15 09:48:50;;;;;;;1.23;0.45;;;23.80;53.10;;;;;;5078491;28;20079;-65
2021/07/15 09:51:19;;;;;;;0.40;0.40;;;23.90;53.10;;;;;;5078714;28;20105;-63
2021/07/15 09:53:47;;;;;;;0.40;0.40;;;23.90;53.10;;;;;;5076332;28;20779;-63
2021/07/15 09:56:18;;;;;;;0.88;0.45;;;23.90;53.40;;;;;;5081557;28;20074;-65
2021/07/15 09:58:47;;;;;;;0.30;0.30;;;23.90;53.60;;;;;;5079942;28;20036;-62
2021/07/15 10:01:20;;;;;;;0.90;0.43;;;24.00;53.70;;;;;;5076213;28;20048;-63
2021/07/15 10:03:51;;;;;;;0.57;0.50;;;23.90;53.90;;;;;;5082112;28;20052;-62
2021/07/15 10:06:19;;;;;;;0.40;0.40;;;24.00;54.00;;;;;;5079101;28;20039;-62
2021/07/15 10:08:53;;;;;;;0.73;0.60;;;24.00;53.60;;;;;;5084473;28;20044;-63
2021/07/15 10:11:23;;;;;;;0.30;0.30;;;24.00;53.20;;;;;;5067888;28;20475;-63
2021/07/15 10:14:05;;;;;;;1.58;0.50;;;24.00;53.10;;;;;;5088335;28;20100;-64
2021/07/15 10:16:36;;;;;;;1.13;0.32;;;24.00;52.80;;;;;;5078647;28;20118;-62
2021/07/15 10:19:07;;;;;;;0.52;0.52;;;24.00;52.70;;;;;;5091142;28;20104;-63
2021/07/15 10:21:36;;;;;;;0.65;0.60;;;23.90;52.60;;;;;;5087160;28;20134;-62
2021/07/15 10:24:23;;;;;;;0.55;0.55;;;23.90;52.70;;;;;;5086334;28;20789;-62
2021/07/15 10:26:52;;;;;;;0.57;0.38;;;23.90;52.70;;;;;;5084914;28;20075;-62
2021/07/15 10:29:21;;;;;;;0.50;0.50;;;23.80;52.60;;;;;;5074936;28;20055;-62
2021/07/15 10:31:50;;;;;;;0.60;0.60;;;23.80;52.70;;;;;;5080644;28;20046;-63
2021/07/15 10:34:18;;;;;;;0.95;0.60;;;23.80;52.70;;;;;;5083139;28;20058;-63
2021/07/15 10:36:46;;;;;;;0.20;0.17;;;23.80;52.70;;;;;;5079869;28;20529;-63
2021/07/15 10:39:15;;;;;;;0.75;0.40;;;23.80;52.70;;;;;;5066225;28;20052;-62
2021/07/15 10:41:44;;;;;;;0.30;0.30;;;23.80;52.70;;;;;;5089286;28;21498;-64
2021/07/15 10:44:12;;;;;;;0.50;0.50;;;23.80;52.70;;;;;;5085763;28;20150;-63
2021/07/15 10:46:40;;;;;;;0.50;0.50;;;23.70;52.60;;;;;;5083659;28;20048;-64
2021/07/15 10:49:28;;;;;;;0.20;0.20;;;23.70;52.60;;;;;;5060041;28;20051;-64
2021/07/15 10:51:56;;;;;;;0.85;0.75;;;23.70;52.80;;;;;;5078531;28;20044;-66
2021/07/15 10:54:25;;;;;;;0.60;0.60;;;23.70;53.00;;;;;;5079796;28;20102;-65
2021/07/15 10:56:53;;;;;;;0.60;0.40;;;23.70;53.30;;;;;;5074282;28;20159;-65
2021/07/15 10:59:26;;;;;;;0.57;0.50;;;23.70;53.70;;;;;;5069063;28;20131;-62
2021/07/15 11:01:59;;;;;;;0.80;0.63;;;23.70;53.80;;;;;;5079417;28;20058;-63
2021/07/15 11:04:37;;;;;;;0.30;0.30;;;23.80;53.90;;;;;;5081053;28;20059;-63
2021/07/15 11:07:28;;;;;;;2.92;0.45;;;23.80;54.00;;;;;;5079141;28;20131;-64
2021/07/15 11:10:18;;;;;;;0.40;0.40;;;23.80;54.00;;;;;;5061038;28;20051;-65
2021/07/15 11:13:00;;;;;;;1.45;0.63;;;23.80;54.00;;;;;;5081807;28;20498;-61
2021/07/15 11:15:49;;;;;;;0.50;0.50;;;23.80;53.80;;;;;;5080456;28;20486;-63
2021/07/15 11:18:49;;;;;;;0.55;0.55;;;23.80;53.70;;;;;;5086647;28;20055;-65
2021/07/15 11:21:32;;;;;;;0.40;0.40;;;23.80;53.60;;;;;;5081128;28;20741;-63
2021/07/15 11:24:40;;;;;;;0.85;0.50;;;23.80;53.50;;;;;;5081350;28;20048;-64
2021/07/15 11:27:31;;;;;;;0.50;0.50;;;23.80;53.50;;;;;;5058156;28;20044;-64
2021/07/15 11:29:59;;;;;;;2.25;0.50;;;23.80;53.50;;;;;;5080909;28;20048;-64
2021/07/15 11:32:28;;;;;;;0.55;0.55;;;23.80;53.50;;;;;;5083586;28;20058;-62
2021/07/15 11:34:55;;;;;;;2.63;0.55;;;23.80;53.40;;;;;;5081217;28;20597;-62
2021/07/15 11:37:36;;;;;;;1.10;0.68;;;23.70;53.30;;;;;;5084387;28;20070;-64
2021/07/15 11:40:41;;;;;;;0.40;0.35;;;23.70;53.40;;;;;;5082724;28;20059;-63
2021/07/15 11:43:31;;;;;;;0.77;0.50;;;23.70;53.00;;;;;;5081427;28;20112;-62
2021/07/15 11:46:10;;;;;;;0.75;0.70;;;23.70;52.90;;;;;;5083531;28;20078;-63
2021/07/15 11:48:58;;;;;;;0.50;0.50;;;23.70;52.80;;;;;;5082739;28;20106;-63
2021/07/15 11:51:53;;;;;;;0.45;0.45;;;23.70;52.70;;;;;;5079396;28;20058;-64
2021/07/15 11:54:32;;;;;;;0.32;0.28;;;23.70;52.70;;;;;;5079833;28;20143;-63
2021/07/15 11:57:22;;;;;;;0.45;0.45;;;23.70;52.70;;;;;;5082526;28;20132;-64
2021/07/15 12:00:06;;;;;;;0.65;0.40;;;23.70;52.70;;;;;;5066299;28;20139;-63
2021/07/15 12:02:40;;;;;;;0.60;0.60;;;23.70;53.20;;;;;;5069142;28;20671;-63
2021/07/15 12:05:18;;;;;;;0.73;0.45;;;23.70;52.60;;;;;;5084924;28;20051;-65
2021/07/15 12:08:07;;;;;;;0.63;0.52;;;23.80;52.50;;;;;;5080341;28;20045;-64
2021/07/15 12:10:41;;;;;;;0.50;0.40;;;23.80;52.30;;;;;;5081286;28;20063;-65
2021/07/15 12:13:11;;;;;;;0.68;0.40;;;23.80;52.30;;;;;;5080241;28;20135;-65
2021/07/15 12:15:43;;;;;;;1.45;0.75;;;23.80;52.80;;;;;;5086175;28;20048;-64
2021/07/15 12:18:19;;;;;;;0.43;0.43;;;23.80;52.20;;;;;;5082842;28;20036;-62
2021/07/15 12:20:56;;;;;;;0.57;0.57;;;23.80;52.10;;;;;;5079170;28;20055;-65
2021/07/15 12:23:34;;;;;;;0.65;0.50;;;23.90;52.10;;;;;;5082165;28;20032;-66
2021/07/15 12:26:06;;;;;;;0.52;0.40;;;23.80;52.10;;;;;;5082619;28;20055;-62
2021/07/15 12:28:34;;;;;;;1.00;0.73;;;23.80;52.10;;;;;;5085053;28;20055;-62
2021/07/15 12:31:06;;;;;;;2.45;0.43;;;23.80;52.10;;;;;;5085894;28;20044;-63
2021/07/15 12:33:45;;;;;;;2.05;0.50;;;23.80;52.00;;;;;;5085041;28;20036;-63
2021/07/15 12:36:15;;;;;;;0.63;0.40;;;23.80;52.00;;;;;;5074853;28;20108;-63
2021/07/15 12:38:48;;;;;;;0.65;0.55;;;23.80;52.60;;;;;;5081710;28;20086;-63
2021/07/15 12:41:24;;;;;;;0.40;0.40;;;23.80;52.00;;;;;;5081865;28;20070;-61
2021/07/15 12:44:00;;;;;;;0.43;0.40;;;23.80;52.00;;;;;;5078352;28;20047;-62
2021/07/15 12:46:36;;;;;;;0.82;0.50;;;23.80;52.00;;;;;;5082738;28;20103;-62
2021/07/15 12:49:26;;;;;;;0.63;0.52;;;23.80;52.00;;;;;;5084376;28;20646;-64
2021/07/15 12:51:56;;;;;;;0.52;0.52;;;23.80;52.00;;;;;;5083393;28;20089;-62
2021/07/15 12:54:33;;;;;;;0.50;0.50;;;23.80;52.00;;;;;;5080375;28;20139;-62
2021/07/15 12:57:08;;;;;;;0.50;0.50;;;23.80;52.30;;;;;;5085260;28;20044;-61
2021/07/15 12:59:37;;;;;;;7.43;0.80;;;23.90;52.40;;;;;;5083735;28;20086;-61
2021/07/15 13:02:34;;;;;;;0.85;0.50;;;23.80;52.50;;;;;;5085840;28;20054;-60
2021/07/15 13:05:19;;;;;;;0.50;0.50;;;23.90;52.90;;;;;;5081657;28;20086;-62
2021/07/15 13:07:48;;;;;;;0.47;0.38;;;23.90;53.10;;;;;;5084432;28;20040;-61
2021/07/15 13:14:12;;;;;;;0.43;0.43;;;23.90;53.20;;;;;;5065042;28;20133;-60
2021/07/15 13:15:54;;;;;;;0.90;0.57;;;24.00;53.30;;;;;;5083680;28;20063;-64
2021/07/15 13:18:25;;;;;;;2.20;0.60;;;24.00;53.40;;;;;;5076921;28;20087;-66